sensor_id;sensor_type;location;lat;lon;timestamp;pressure;altitude;pressure_sealevel;temperature;humidity
71903;BME280;59778;50.310;18.780;2023-02-13T00:01:57;100851.50;;;1.60;100.00
71903;BME280;59778;50.310;18.780;2023-02-13T00:17:19;100858.50;;;1.63;100.00
71903;BME280;59778;50.310;18.780;2023-02-13T00:32:40;100840.16;;;1.71;100.00
71903;BME280;59778;50.310;18.780;2023-02-13T00:48:02;100838.06;;;1.92;100.00
71903;BME280;59778;50.310;18.780;2023-02-13T01:03:23;100841.38;;;2.11;100.00
71903;BME280;59778;50.310;18.780;2023-02-13T01:18:45;100837.56;;;2.15;100.00
71903;BME280;59778;50.310;18.780;2023-02-13T01:34:06;100813.09;;;2.21;100.00
71903;BME280;59778;50.310;18.780;2023-02-13T01:49:28;100814.06;;;2.34;100.00
71903;BME280;59778;50.310;18.780;2023-02-13T02:04:50;100791.06;;;2.30;100.00
71903;BME280;59778;50.310;18.780;2023-02-13T02:51:36;100783.72;;;2.62;100.00
71903;BME280;59778;50.310;18.780;2023-02-13T03:07:01;100784.03;;;2.71;100.00
71903;BME280;59778;50.310;18.780;2023-02-13T03:22:41;100791.59;;;2.51;100.00
71903;BME280;59778;50.310;18.780;2023-02-13T03:38:13;100793.41;;;2.78;100.00
71903;BME280;59778;50.310;18.780;2023-02-13T03:53:37;100788.81;;;2.80;100.00
71903;BME280;59778;50.310;18.780;2023-02-13T04:08:59;100787.00;;;2.95;100.00
71903;BME280;59778;50.310;18.780;2023-02-13T04:24:21;100761.50;;;2.88;100.00
71903;BME280;59778;50.310;18.780;2023-02-13T04:39:42;100775.19;;;2.98;100.00
71903;BME280;59778;50.310;18.780;2023-02-13T04:55:04;100784.69;;;3.03;100.00
71903;BME280;59778;50.310;18.780;2023-02-13T05:10:26;100774.31;;;3.11;100.00
71903;BME280;59778;50.310;18.780;2023-02-13T05:25:49;100762.44;;;3.01;100.00
71903;BME280;59778;50.310;18.780;2023-02-13T05:41:10;100775.97;;;3.00;100.00
71903;BME280;59778;50.310;18.780;2023-02-13T05:56:33;100772.03;;;2.77;100.00
71903;BME280;59778;50.310;18.780;2023-02-13T06:11:54;100788.34;;;2.74;100.00
71903;BME280;59778;50.310;18.780;2023-02-13T06:27:16;100793.13;;;2.69;100.00
71903;BME280;59778;50.310;18.780;2023-02-13T06:42:37;100796.47;;;2.58;100.00
71903;BME280;59778;50.310;18.780;2023-02-13T06:57:58;100800.50;;;2.51;100.00
71903;BME280;59778;50.310;18.780;2023-02-13T07:13:20;100814.00;;;2.78;100.00
71903;BME280;59778;50.310;18.780;2023-02-13T07:28:41;100803.59;;;3.28;100.00
71903;BME280;59778;50.310;18.780;2023-02-13T07:44:02;100806.22;;;3.57;100.00
71903;BME280;59778;50.310;18.780;2023-02-13T07:59:24;100795.53;;;3.69;100.00
71903;BME280;59778;50.310;18.780;2023-02-13T08:14:45;100788.91;;;3.75;100.00
71903;BME280;59778;50.310;18.780;2023-02-13T08:30:08;100801.34;;;4.03;100.00
71903;BME280;59778;50.310;18.780;2023-02-13T08:45:30;100797.69;;;4.16;100.00
71903;BME280;59778;50.310;18.780;2023-02-13T09:00:52;100790.94;;;4.36;100.00
71903;BME280;59778;50.310;18.780;2023-02-13T09:16:14;100795.72;;;4.58;100.00
71903;BME280;59778;50.310;18.780;2023-02-13T09:31:36;100809.03;;;4.59;100.00
71903;BME280;59778;50.310;18.780;2023-02-13T09:46:59;100799.59;;;4.54;100.00
71903;BME280;59778;50.310;18.780;2023-02-13T10:18:26;100788.69;;;4.55;100.00
71903;BME280;59778;50.310;18.780;2023-02-13T10:33:57;100767.50;;;4.63;100.00
71903;BME280;59778;50.310;18.780;2023-02-13T10:49:39;100749.28;;;4.67;100.00
71903;BME280;59778;50.310;18.780;2023-02-13T11:05:18;100741.41;;;4.89;100.00
71903;BME280;59778;50.310;18.780;2023-02-13T11:20:42;100696.81;;;5.21;100.00
71903;BME280;59778;50.310;18.780;2023-02-13T11:36:52;100698.88;;;5.42;100.00
71903;BME280;59778;50.310;18.780;2023-02-13T11:51:56;100690.75;;;5.31;100.00
71903;BME280;59778;50.310;18.780;2023-02-13T12:07:28;100692.19;;;5.23;100.00
71903;BME280;59778;50.310;18.780;2023-02-13T12:38:55;100681.66;;;5.20;100.00
71903;BME280;59778;50.310;18.780;2023-02-13T13:09:54;100679.88;;;5.32;100.00
71903;BME280;59778;50.310;18.780;2023-02-13T13:57:06;100666.81;;;5.85;100.00
71903;BME280;59778;50.310;18.780;2023-02-13T14:27:59;100674.53;;;5.19;100.00
71903;BME280;59778;50.310;18.780;2023-02-13T14:43:29;100666.34;;;4.97;100.00
71903;BME280;59778;50.310;18.780;2023-02-13T14:58:57;100656.69;;;5.06;100.00
71903;BME280;59778;50.310;18.780;2023-02-13T15:14:30;100656.97;;;4.90;100.00
71903;BME280;59778;50.310;18.780;2023-02-13T15:29:54;100640.25;;;4.74;100.00
71903;BME280;59778;50.310;18.780;2023-02-13T15:45:17;100638.78;;;4.57;100.00
71903;BME280;59778;50.310;18.780;2023-02-13T16:00:40;100650.22;;;4.48;100.00
71903;BME280;59778;50.310;18.780;2023-02-13T16:16:08;100656.88;;;4.43;100.00
71903;BME280;59778;50.310;18.780;2023-02-13T16:31:31;100649.25;;;4.37;100.00
71903;BME280;59778;50.310;18.780;2023-02-13T16:46:55;100661.63;;;4.39;100.00
71903;BME280;59778;50.310;18.780;2023-02-13T17:17:43;100636.78;;;4.36;98.83
71903;BME280;59778;50.310;18.780;2023-02-13T17:33:09;100624.44;;;4.20;98.36
71903;BME280;59778;50.310;18.780;2023-02-13T17:48:31;100631.75;;;4.18;98.36
71903;BME280;59778;50.310;18.780;2023-02-13T18:03:53;100621.31;;;4.26;99.43
71903;BME280;59778;50.310;18.780;2023-02-13T18:19:14;100606.06;;;4.14;100.00
71903;BME280;59778;50.310;18.780;2023-02-13T18:34:37;100629.81;;;4.20;100.00
71903;BME280;59778;50.310;18.780;2023-02-13T18:49:59;100636.38;;;4.29;100.00
71903;BME280;59778;50.310;18.780;2023-02-13T19:05:20;100647.53;;;4.23;100.00
71903;BME280;59778;50.310;18.780;2023-02-13T19:20:42;100657.97;;;4.27;100.00
71903;BME280;59778;50.310;18.780;2023-02-13T19:36:06;100670.69;;;4.38;100.00
71903;BME280;59778;50.310;18.780;2023-02-13T19:51:33;100658.94;;;4.39;100.00
71903;BME280;59778;50.310;18.780;2023-02-13T20:06:55;100660.03;;;4.37;100.00
71903;BME280;59778;50.310;18.780;2023-02-13T20:22:18;100684.97;;;4.39;100.00
71903;BME280;59778;50.310;18.780;2023-02-13T20:37:40;100714.69;;;4.50;100.00
71903;BME280;59778;50.310;18.780;2023-02-13T20:53:02;100715.63;;;4.49;100.00
71903;BME280;59778;50.310;18.780;2023-02-13T21:08:24;100700.69;;;4.45;100.00
71903;BME280;59778;50.310;18.780;2023-02-13T21:23:45;100689.16;;;4.43;100.00
71903;BME280;59778;50.310;18.780;2023-02-13T21:39:07;100690.03;;;4.43;100.00
71903;BME280;59778;50.310;18.780;2023-02-13T21:54:29;100683.03;;;4.41;100.00
71903;BME280;59778;50.310;18.780;2023-02-13T22:09:51;100683.03;;;4.41;100.00
71903;BME280;59778;50.310;18.780;2023-02-13T22:25:15;100682.50;;;4.23;100.00
71903;BME280;59778;50.310;18.780;2023-02-13T22:40:37;100670.47;;;4.28;100.00
71903;BME280;59778;50.310;18.780;2023-02-13T22:56:00;100673.78;;;4.19;100.00
71903;BME280;59778;50.310;18.780;2023-02-13T23:11:25;100671.44;;;3.90;100.00
71903;BME280;59778;50.310;18.780;2023-02-13T23:27:06;100673.59;;;3.97;100.00
71903;BME280;59778;50.310;18.780;2023-02-13T23:42:27;100669.38;;;3.93;100.00
71903;BME280;59778;50.310;18.780;2023-02-13T23:57:48;100665.84;;;3.93;100.00
